Jean Anne — WDC3786 — position and weather

sailwx.info

Track history (hours):
 
Tides and Currents Weather Stations Pressure Air Temp Water Temp Dewpoint Dewpoint Depression Visibility Wind Speed Wind Dir Waves Ship Positions

Jean Anne

Owner: PASHA HAWAII TRANSPORT LINES LLC, National City, CA. More information available from US FCC via Universal Licensing System and Coast Guard Vessel Documentation Center.

Last reported at 2017-Jun-24 12:00 UTC. Time now 2017-Jun-24 22:41 UTC.
Position N 20°48' W 152°42'.

Type: Cargo ship. MMSI: 367003380.

Wind from 100 at 12 knots

Barometer 1016.7 mb
Air temperature 23.0 ° C
Visibility: greater than 10.8 NM
Dewpoint 19.9 ° C

Date/timePositionNaut miles runAvg speedWind from/ knotsBaromVisibWave heightAir tempDewpointWater temp
2017-Jun-24 12:00N 20°48' W 152°42'   100 / 121016.710.8 23.019.9
2017-Jun-21 00:00N 22°18' W 154°42'22618.8 090 / 151018.910.8 25.920.0
2017-Jun-20 12:00N 23°42' W 150°54'47219.7 070 / 191020.110.8 22.316.8
2017-Jun-19 12:00N 26°18' W 142°42'47519.8 020 / 151021.310.8 20.815.8
2017-Jun-18 12:00N 28°24' W 134°06'53819.2 040 / 201021.110.8 17.016.7
2017-Jun-17 08:00N 30°06' W 124°00'14419.0 350 / 251017.610.8 16.014.4
2017-Jun-17 00:25N 30°34' W 121°17'818.7
2017-Jun-16 23:58N 30°35' W 121°07'1318.7
2017-Jun-16 23:18N 30°38' W 120°53'518.5
2017-Jun-16 23:00N 30°39' W 120°47'918.3
2017-Jun-16 22:30N 30°41' W 120°36'918.2
2017-Jun-16 22:01N 30°43' W 120°26'918.2
2017-Jun-16 21:30N 30°45' W 120°15'1118.1
2017-Jun-16 20:52N 30°47' W 120°02'718.2
2017-Jun-16 20:28N 30°49' W 119°54'918.3
2017-Jun-16 20:00N 30°50' W 119°44'1018.4
2017-Jun-16 19:26N 30°53' W 119°32'818.4
2017-Jun-16 19:01N 30°54' W 119°23'1118.2
2017-Jun-16 18:24N 30°57' W 119°11'718.3
2017-Jun-16 18:00N 30°58' W 119°02'918.4
2017-Jun-16 17:30N 30°60' W 118°52'918.4
2017-Jun-16 17:01N 31°02' W 118°42'917.6
2017-Jun-16 16:30N 31°06' W 118°33'918.8
2017-Jun-16 16:01N 31°13' W 118°26'918.8
2017-Jun-16 15:31N 31°21' W 118°20'918.9
2017-Jun-16 15:01N 31°29' W 118°13'918.8
2017-Jun-16 14:31N 31°36' W 118°07'1918.9
2017-Jun-16 13:31N 31°52' W 117°54'918.9
2017-Jun-16 13:01N 31°59' W 117°47'1019.1
2017-Jun-16 12:31N 32°07' W 117°40'1019.1
2017-Jun-16 12:01N 32°15' W 117°34'917.5
2017-Jun-16 11:31N 32°22' W 117°28'815.3
2017-Jun-16 11:01N 32°28' W 117°23'815.6
2017-Jun-16 10:31N 32°34' W 117°17'714.0
2017-Jun-16 10:00N 32°41' W 117°14'4 7.1
2017-Jun-16 09:30N 32°42' W 117°10'3 6.6
2017-Jun-16 09:00N 32°39' W 117°07'0 0.0
2017-Jun-16 08:30N 32°39' W 117°07'0 0.0
2017-Jun-16 08:00N 32°39' W 117°07'0 0.0
2017-Jun-16 07:25N 32°39' W 117°07'0 0.0
2017-Jun-16 06:55N 32°39' W 117°07'0 0.0
2017-Jun-16 05:04N 32°39' W 117°07'0 0.0
2017-Jun-16 04:55N 32°39' W 117°07'0 0.0
2017-Jun-16 04:25N 32°39' W 117°07'0 0.0
2017-Jun-16 03:49N 32°39' W 117°07'0 0.0
2017-Jun-16 03:28N 32°39' W 117°07'0 0.0
2017-Jun-16 01:37N 32°39' W 117°07'0 0.0
2017-Jun-16 01:22N 32°39' W 117°07'0 0.0
2017-Jun-15 13:19N 32°39' W 117°07'0 0.0
2017-Jun-15 10:01N 32°39' W 117°07'0 0.0
2017-Jun-15 09:41N 32°39' W 117°07'0 0.0
2017-Jun-15 09:26N 32°39' W 117°07'1 3.1
2017-Jun-15 09:00N 32°41' W 117°08'510.2
2017-Jun-15 08:30N 32°43' W 117°13'611.1
2017-Jun-15 08:00N 32°37' W 117°15'611.4
2017-Jun-15 07:30N 32°32' W 117°18'715.0
2017-Jun-15 07:01N 32°26' W 117°24'815.0
2017-Jun-15 06:31N 32°20' W 117°29'815.1
2017-Jun-15 06:00N 32°14' W 117°34'917.3
2017-Jun-15 05:30N 32°07' W 117°40'918.4
2017-Jun-15 05:00N 31°60' W 117°47'918.6
2017-Jun-15 04:31N 31°52' W 117°53'918.6
2017-Jun-15 04:00N 31°45' W 117°60'918.4
2017-Jun-15 03:31N 31°37' W 118°06'918.6
2017-Jun-15 03:01N 31°30' W 118°12'918.4
2017-Jun-15 02:30N 31°22' W 118°19'918.5
2017-Jun-15 02:00N 31°15' W 118°25'918.4
2017-Jun-15 01:30N 31°07' W 118°31'918.0
2017-Jun-15 01:01N 31°02' W 118°40'6519.9
2017-Jun-14 21:45N 30°49' W 119°54'1119.8
2017-Jun-14 21:13N 30°47' W 120°06'519.7
2017-Jun-14 20:57N 30°45' W 120°12'13919.6
2017-Jun-14 13:52N 30°21' W 122°50'819.0
2017-Jun-14 13:26N 30°20' W 122°60'918.9
2017-Jun-14 12:57N 30°18' W 123°10'919.0
2017-Jun-14 12:30N 30°17' W 123°20'919.1
2017-Jun-14 12:00N 30°16' W 123°31'  
Track history (hours):
 
Tides and Currents Weather Stations Pressure Air Temp Water Temp Dewpoint Dewpoint Depression Visibility Wind Speed Wind Dir Waves Ship Positions

Jean Anne

Owner: PASHA HAWAII TRANSPORT LINES LLC, National City, CA. More information available from US FCC via Universal Licensing System and Coast Guard Vessel Documentation Center.

Last reported at 2017-Jun-24 12:00 UTC. Time now 2017-Jun-24 22:41 UTC.
Position N 20°48' W 152°42'.

Type: Cargo ship. MMSI: 367003380.

Wind from 100 at 12 knots

Barometer 1016.7 mb
Air temperature 23.0 ° C
Visibility: greater than 10.8 NM
Dewpoint 19.9 ° C

Date/timePositionNaut miles runAvg speedWind from/ knotsBaromVisibWave heightAir tempDewpointWater temp
2017-Jun-24 12:00N 20°48' W 152°42'   100 / 121016.710.8 23.019.9
2017-Jun-21 00:00N 22°18' W 154°42'22618.8 090 / 151018.910.8 25.920.0
2017-Jun-20 12:00N 23°42' W 150°54'47219.7 070 / 191020.110.8 22.316.8
2017-Jun-19 12:00N 26°18' W 142°42'47519.8 020 / 151021.310.8 20.815.8
2017-Jun-18 12:00N 28°24' W 134°06'53819.2 040 / 201021.110.8 17.016.7
2017-Jun-17 08:00N 30°06' W 124°00'14419.0 350 / 251017.610.8 16.014.4
2017-Jun-17 00:25N 30°34' W 121°17'818.7
2017-Jun-16 23:58N 30°35' W 121°07'1318.7
2017-Jun-16 23:18N 30°38' W 120°53'518.5
2017-Jun-16 23:00N 30°39' W 120°47'918.3
2017-Jun-16 22:30N 30°41' W 120°36'918.2
2017-Jun-16 22:01N 30°43' W 120°26'918.2
2017-Jun-16 21:30N 30°45' W 120°15'1118.1
2017-Jun-16 20:52N 30°47' W 120°02'718.2
2017-Jun-16 20:28N 30°49' W 119°54'918.3
2017-Jun-16 20:00N 30°50' W 119°44'1018.4
2017-Jun-16 19:26N 30°53' W 119°32'818.4
2017-Jun-16 19:01N 30°54' W 119°23'1118.2
2017-Jun-16 18:24N 30°57' W 119°11'718.3
2017-Jun-16 18:00N 30°58' W 119°02'918.4
2017-Jun-16 17:30N 30°60' W 118°52'918.4
2017-Jun-16 17:01N 31°02' W 118°42'917.6
2017-Jun-16 16:30N 31°06' W 118°33'918.8
2017-Jun-16 16:01N 31°13' W 118°26'918.8
2017-Jun-16 15:31N 31°21' W 118°20'918.9
2017-Jun-16 15:01N 31°29' W 118°13'918.8
2017-Jun-16 14:31N 31°36' W 118°07'1918.9
2017-Jun-16 13:31N 31°52' W 117°54'918.9
2017-Jun-16 13:01N 31°59' W 117°47'1019.1
2017-Jun-16 12:31N 32°07' W 117°40'1019.1
2017-Jun-16 12:01N 32°15' W 117°34'917.5
2017-Jun-16 11:31N 32°22' W 117°28'815.3
2017-Jun-16 11:01N 32°28' W 117°23'815.6
2017-Jun-16 10:31N 32°34' W 117°17'714.0
2017-Jun-16 10:00N 32°41' W 117°14'4 7.1
2017-Jun-16 09:30N 32°42' W 117°10'3 6.6
2017-Jun-16 09:00N 32°39' W 117°07'0 0.0
2017-Jun-16 08:30N 32°39' W 117°07'0 0.0
2017-Jun-16 08:00N 32°39' W 117°07'0 0.0
2017-Jun-16 07:25N 32°39' W 117°07'0 0.0
2017-Jun-16 06:55N 32°39' W 117°07'0 0.0
2017-Jun-16 05:04N 32°39' W 117°07'0 0.0
2017-Jun-16 04:55N 32°39' W 117°07'0 0.0
2017-Jun-16 04:25N 32°39' W 117°07'0 0.0
2017-Jun-16 03:49N 32°39' W 117°07'0 0.0
2017-Jun-16 03:28N 32°39' W 117°07'0 0.0
2017-Jun-16 01:37N 32°39' W 117°07'0 0.0
2017-Jun-16 01:22N 32°39' W 117°07'0 0.0
2017-Jun-15 13:19N 32°39' W 117°07'0 0.0
2017-Jun-15 10:01N 32°39' W 117°07'0 0.0
2017-Jun-15 09:41N 32°39' W 117°07'0 0.0
2017-Jun-15 09:26N 32°39' W 117°07'1 3.1
2017-Jun-15 09:00N 32°41' W 117°08'510.2
2017-Jun-15 08:30N 32°43' W 117°13'611.1
2017-Jun-15 08:00N 32°37' W 117°15'611.4
2017-Jun-15 07:30N 32°32' W 117°18'715.0
2017-Jun-15 07:01N 32°26' W 117°24'815.0
2017-Jun-15 06:31N 32°20' W 117°29'815.1
2017-Jun-15 06:00N 32°14' W 117°34'917.3
2017-Jun-15 05:30N 32°07' W 117°40'918.4
2017-Jun-15 05:00N 31°60' W 117°47'918.6
2017-Jun-15 04:31N 31°52' W 117°53'918.6
2017-Jun-15 04:00N 31°45' W 117°60'918.4
2017-Jun-15 03:31N 31°37' W 118°06'918.6
2017-Jun-15 03:01N 31°30' W 118°12'918.4
2017-Jun-15 02:30N 31°22' W 118°19'918.5
2017-Jun-15 02:00N 31°15' W 118°25'918.4
2017-Jun-15 01:30N 31°07' W 118°31'918.0
2017-Jun-15 01:01N 31°02' W 118°40'6519.9
2017-Jun-14 21:45N 30°49' W 119°54'1119.8
2017-Jun-14 21:13N 30°47' W 120°06'519.7
2017-Jun-14 20:57N 30°45' W 120°12'13919.6
2017-Jun-14 13:52N 30°21' W 122°50'819.0
2017-Jun-14 13:26N 30°20' W 122°60'918.9
2017-Jun-14 12:57N 30°18' W 123°10'919.0
2017-Jun-14 12:30N 30°17' W 123°20'919.1
2017-Jun-14 12:00N 30°16' W 123°31'  

Dump ship's entire track history